sensor_id;sensor_type;location;lat;lon;timestamp;P1;durP1;ratioP1;P2;durP2;ratioP2
74059;SDS011;62414;53.436;8.828;2023-07-30T00:00:32;9.23;;;5.27;;
74059;SDS011;62414;53.436;8.828;2023-07-30T00:02:58;8.35;;;5.15;;
74059;SDS011;62414;53.436;8.828;2023-07-30T00:05:24;10.67;;;5.30;;
74059;SDS011;62414;53.436;8.828;2023-07-30T00:07:50;10.70;;;5.90;;
74059;SDS011;62414;53.436;8.828;2023-07-30T00:10:15;11.43;;;6.00;;
74059;SDS011;62414;53.436;8.828;2023-07-30T00:12:41;10.97;;;6.70;;
74059;SDS011;62414;53.436;8.828;2023-07-30T00:15:07;11.70;;;6.50;;
74059;SDS011;62414;53.436;8.828;2023-07-30T00:17:32;11.53;;;6.53;;
74059;SDS011;62414;53.436;8.828;2023-07-30T00:19:58;12.45;;;6.57;;
74059;SDS011;62414;53.436;8.828;2023-07-30T00:22:25;11.90;;;7.10;;
74059;SDS011;62414;53.436;8.828;2023-07-30T00:24:50;13.10;;;7.43;;
74059;SDS011;62414;53.436;8.828;2023-07-30T00:27:15;14.00;;;7.07;;
74059;SDS011;62414;53.436;8.828;2023-07-30T00:29:41;12.40;;;7.70;;
74059;SDS011;62414;53.436;8.828;2023-07-30T00:32:07;13.13;;;7.70;;
74059;SDS011;62414;53.436;8.828;2023-07-30T00:34:32;13.18;;;8.25;;
74059;SDS011;62414;53.436;8.828;2023-07-30T00:36:58;13.87;;;7.80;;
74059;SDS011;62414;53.436;8.828;2023-07-30T00:39:25;14.03;;;8.30;;
74059;SDS011;62414;53.436;8.828;2023-07-30T00:41:50;13.82;;;7.78;;
74059;SDS011;62414;53.436;8.828;2023-07-30T00:44:16;14.77;;;7.83;;
74059;SDS011;62414;53.436;8.828;2023-07-30T00:46:41;15.47;;;8.73;;
74059;SDS011;62414;53.436;8.828;2023-07-30T00:49:07;15.80;;;8.55;;
74059;SDS011;62414;53.436;8.828;2023-07-30T00:51:33;21.23;;;8.53;;
74059;SDS011;62414;53.436;8.828;2023-07-30T00:53:58;15.75;;;8.90;;
74059;SDS011;62414;53.436;8.828;2023-07-30T00:56:26;15.70;;;8.88;;
74059;SDS011;62414;53.436;8.828;2023-07-30T00:58:51;16.17;;;9.50;;
74059;SDS011;62414;53.436;8.828;2023-07-30T01:01:17;15.20;;;8.80;;
74059;SDS011;62414;53.436;8.828;2023-07-30T01:03:43;17.50;;;8.77;;
74059;SDS011;62414;53.436;8.828;2023-07-30T01:06:08;17.00;;;8.95;;
74059;SDS011;62414;53.436;8.828;2023-07-30T01:08:34;16.90;;;8.93;;
74059;SDS011;62414;53.436;8.828;2023-07-30T01:10:59;17.00;;;9.20;;
74059;SDS011;62414;53.436;8.828;2023-07-30T01:13:27;20.90;;;9.50;;
74059;SDS011;62414;53.436;8.828;2023-07-30T01:15:53;17.20;;;9.77;;
74059;SDS011;62414;53.436;8.828;2023-07-30T01:18:19;19.50;;;10.60;;
74059;SDS011;62414;53.436;8.828;2023-07-30T01:20:45;20.70;;;10.40;;
74059;SDS011;62414;53.436;8.828;2023-07-30T01:23:11;18.47;;;9.63;;
74059;SDS011;62414;53.436;8.828;2023-07-30T01:25:37;19.83;;;9.63;;
74059;SDS011;62414;53.436;8.828;2023-07-30T01:28:02;19.80;;;9.90;;
74059;SDS011;62414;53.436;8.828;2023-07-30T01:30:30;21.87;;;10.13;;
74059;SDS011;62414;53.436;8.828;2023-07-30T01:32:58;20.75;;;10.02;;
74059;SDS011;62414;53.436;8.828;2023-07-30T01:35:25;19.27;;;10.30;;
74059;SDS011;62414;53.436;8.828;2023-07-30T01:37:52;20.80;;;10.47;;
74059;SDS011;62414;53.436;8.828;2023-07-30T01:40:19;21.42;;;11.68;;
74059;SDS011;62414;53.436;8.828;2023-07-30T01:42:44;19.67;;;11.75;;
74059;SDS011;62414;53.436;8.828;2023-07-30T01:45:10;22.63;;;13.20;;
74059;SDS011;62414;53.436;8.828;2023-07-30T01:47:35;21.92;;;13.05;;
74059;SDS011;62414;53.436;8.828;2023-07-30T01:50:01;23.03;;;13.63;;
74059;SDS011;62414;53.436;8.828;2023-07-30T01:52:27;24.10;;;13.00;;
74059;SDS011;62414;53.436;8.828;2023-07-30T01:54:52;24.67;;;13.00;;
74059;SDS011;62414;53.436;8.828;2023-07-30T01:57:19;21.83;;;11.83;;
74059;SDS011;62414;53.436;8.828;2023-07-30T01:59:45;22.95;;;11.63;;
74059;SDS011;62414;53.436;8.828;2023-07-30T02:02:10;22.00;;;11.47;;
74059;SDS011;62414;53.436;8.828;2023-07-30T02:04:35;23.53;;;12.03;;
74059;SDS011;62414;53.436;8.828;2023-07-30T02:07:01;24.58;;;11.75;;
74059;SDS011;62414;53.436;8.828;2023-07-30T02:09:26;26.10;;;11.63;;
74059;SDS011;62414;53.436;8.828;2023-07-30T02:11:52;24.27;;;11.83;;
74059;SDS011;62414;53.436;8.828;2023-07-30T02:14:19;22.35;;;11.93;;
74059;SDS011;62414;53.436;8.828;2023-07-30T02:16:46;25.37;;;11.43;;
74059;SDS011;62414;53.436;8.828;2023-07-30T02:19:12;26.88;;;11.25;;
74059;SDS011;62414;53.436;8.828;2023-07-30T02:21:37;22.83;;;11.13;;
74059;SDS011;62414;53.436;8.828;2023-07-30T02:24:03;24.70;;;11.67;;
74059;SDS011;62414;53.436;8.828;2023-07-30T02:26:28;24.48;;;11.75;;
74059;SDS011;62414;53.436;8.828;2023-07-30T02:28:54;26.00;;;12.03;;
74059;SDS011;62414;53.436;8.828;2023-07-30T02:31:21;26.02;;;11.80;;
74059;SDS011;62414;53.436;8.828;2023-07-30T02:33:46;25.48;;;12.10;;
74059;SDS011;62414;53.436;8.828;2023-07-30T02:36:11;23.70;;;11.83;;
74059;SDS011;62414;53.436;8.828;2023-07-30T02:38:37;28.90;;;12.53;;
74059;SDS011;62414;53.436;8.828;2023-07-30T02:41:02;25.73;;;11.60;;
74059;SDS011;62414;53.436;8.828;2023-07-30T02:43:28;27.42;;;11.63;;
74059;SDS011;62414;53.436;8.828;2023-07-30T02:45:53;23.93;;;11.27;;
74059;SDS011;62414;53.436;8.828;2023-07-30T02:48:20;26.43;;;11.53;;
74059;SDS011;62414;53.436;8.828;2023-07-30T02:50:45;26.10;;;11.05;;
74059;SDS011;62414;53.436;8.828;2023-07-30T02:53:11;23.80;;;11.53;;
74059;SDS011;62414;53.436;8.828;2023-07-30T02:55:36;24.35;;;11.35;;
74059;SDS011;62414;53.436;8.828;2023-07-30T02:58:02;30.87;;;11.10;;
74059;SDS011;62414;53.436;8.828;2023-07-30T03:00:27;24.40;;;11.00;;
74059;SDS011;62414;53.436;8.828;2023-07-30T03:02:53;22.67;;;10.20;;
74059;SDS011;62414;53.436;8.828;2023-07-30T03:05:19;25.10;;;11.03;;
74059;SDS011;62414;53.436;8.828;2023-07-30T03:07:45;23.65;;;10.32;;
74059;SDS011;62414;53.436;8.828;2023-07-30T03:10:11;24.50;;;10.33;;
74059;SDS011;62414;53.436;8.828;2023-07-30T03:12:36;23.27;;;9.73;;
74059;SDS011;62414;53.436;8.828;2023-07-30T03:15:02;22.70;;;9.77;;
74059;SDS011;62414;53.436;8.828;2023-07-30T03:17:28;21.47;;;9.77;;
74059;SDS011;62414;53.436;8.828;2023-07-30T03:19:53;21.23;;;9.65;;
74059;SDS011;62414;53.436;8.828;2023-07-30T03:22:20;23.80;;;9.83;;
74059;SDS011;62414;53.436;8.828;2023-07-30T03:24:45;23.50;;;9.43;;
74059;SDS011;62414;53.436;8.828;2023-07-30T03:27:11;20.03;;;9.00;;
74059;SDS011;62414;53.436;8.828;2023-07-30T03:29:36;24.13;;;9.50;;
74059;SDS011;62414;53.436;8.828;2023-07-30T03:32:02;23.23;;;9.53;;
74059;SDS011;62414;53.436;8.828;2023-07-30T03:34:27;21.27;;;9.57;;
74059;SDS011;62414;53.436;8.828;2023-07-30T03:36:53;26.57;;;9.53;;
74059;SDS011;62414;53.436;8.828;2023-07-30T03:39:20;24.40;;;9.85;;
74059;SDS011;62414;53.436;8.828;2023-07-30T03:41:45;21.77;;;8.90;;
74059;SDS011;62414;53.436;8.828;2023-07-30T03:44:11;22.83;;;9.82;;
74059;SDS011;62414;53.436;8.828;2023-07-30T03:46:36;20.33;;;9.30;;
74059;SDS011;62414;53.436;8.828;2023-07-30T03:49:02;22.67;;;9.82;;
74059;SDS011;62414;53.436;8.828;2023-07-30T03:51:27;22.90;;;9.57;;
74059;SDS011;62414;53.436;8.828;2023-07-30T03:53:53;22.00;;;9.23;;
74059;SDS011;62414;53.436;8.828;2023-07-30T03:56:20;18.80;;;8.67;;
74059;SDS011;62414;53.436;8.828;2023-07-30T03:58:45;22.70;;;9.60;;
74059;SDS011;62414;53.436;8.828;2023-07-30T04:01:10;22.13;;;9.45;;
74059;SDS011;62414;53.436;8.828;2023-07-30T04:03:36;21.27;;;9.30;;
74059;SDS011;62414;53.436;8.828;2023-07-30T04:06:01;23.33;;;9.57;;
74059;SDS011;62414;53.436;8.828;2023-07-30T04:08:27;22.23;;;9.40;;
74059;SDS011;62414;53.436;8.828;2023-07-30T04:10:52;24.40;;;9.87;;
74059;SDS011;62414;53.436;8.828;2023-07-30T04:13:19;26.20;;;9.87;;
74059;SDS011;62414;53.436;8.828;2023-07-30T04:15:46;25.02;;;9.85;;
74059;SDS011;62414;53.436;8.828;2023-07-30T04:18:12;24.52;;;10.30;;
74059;SDS011;62414;53.436;8.828;2023-07-30T04:20:37;21.33;;;9.50;;
74059;SDS011;62414;53.436;8.828;2023-07-30T04:23:03;23.87;;;10.53;;
74059;SDS011;62414;53.436;8.828;2023-07-30T04:25:28;25.03;;;10.10;;
74059;SDS011;62414;53.436;8.828;2023-07-30T04:27:54;24.90;;;9.90;;
74059;SDS011;62414;53.436;8.828;2023-07-30T04:30:21;25.25;;;10.13;;
74059;SDS011;62414;53.436;8.828;2023-07-30T04:32:47;25.27;;;10.27;;
74059;SDS011;62414;53.436;8.828;2023-07-30T04:35:12;26.08;;;10.10;;
74059;SDS011;62414;53.436;8.828;2023-07-30T04:37:38;26.93;;;10.37;;
74059;SDS011;62414;53.436;8.828;2023-07-30T04:40:04;26.52;;;10.40;;
74059;SDS011;62414;53.436;8.828;2023-07-30T04:42:30;26.05;;;9.75;;
74059;SDS011;62414;53.436;8.828;2023-07-30T04:44:56;24.67;;;9.80;;
74059;SDS011;62414;53.436;8.828;2023-07-30T04:47:23;29.10;;;9.80;;
74059;SDS011;62414;53.436;8.828;2023-07-30T04:49:49;27.15;;;9.48;;
74059;SDS011;62414;53.436;8.828;2023-07-30T04:52:14;25.10;;;9.40;;
74059;SDS011;62414;53.436;8.828;2023-07-30T04:54:39;28.80;;;10.00;;
74059;SDS011;62414;53.436;8.828;2023-07-30T04:57:05;25.77;;;9.20;;
74059;SDS011;62414;53.436;8.828;2023-07-30T04:59:31;24.50;;;8.65;;
74059;SDS011;62414;53.436;8.828;2023-07-30T05:01:56;24.63;;;8.47;;
74059;SDS011;62414;53.436;8.828;2023-07-30T05:04:23;22.17;;;8.63;;
74059;SDS011;62414;53.436;8.828;2023-07-30T05:06:48;24.15;;;8.07;;
74059;SDS011;62414;53.436;8.828;2023-07-30T05:09:14;22.73;;;8.20;;
74059;SDS011;62414;53.436;8.828;2023-07-30T05:11:39;23.70;;;8.23;;
74059;SDS011;62414;53.436;8.828;2023-07-30T05:14:05;21.63;;;8.10;;
74059;SDS011;62414;53.436;8.828;2023-07-30T05:16:30;22.30;;;7.70;;
74059;SDS011;62414;53.436;8.828;2023-07-30T05:18:55;18.53;;;7.23;;
74059;SDS011;62414;53.436;8.828;2023-07-30T05:21:22;22.40;;;7.23;;
74059;SDS011;62414;53.436;8.828;2023-07-30T05:23:48;22.08;;;7.10;;
74059;SDS011;62414;53.436;8.828;2023-07-30T05:26:13;20.23;;;6.63;;
74059;SDS011;62414;53.436;8.828;2023-07-30T05:28:38;23.23;;;7.17;;
74059;SDS011;62414;53.436;8.828;2023-07-30T05:31:04;20.77;;;6.37;;
74059;SDS011;62414;53.436;8.828;2023-07-30T05:33:29;20.60;;;6.55;;
74059;SDS011;62414;53.436;8.828;2023-07-30T05:35:55;15.63;;;5.90;;
74059;SDS011;62414;53.436;8.828;2023-07-30T05:38:22;22.60;;;6.30;;
74059;SDS011;62414;53.436;8.828;2023-07-30T05:40:47;20.98;;;6.28;;
74059;SDS011;62414;53.436;8.828;2023-07-30T05:43:12;18.67;;;5.60;;
74059;SDS011;62414;53.436;8.828;2023-07-30T05:45:38;15.85;;;5.53;;
74059;SDS011;62414;53.436;8.828;2023-07-30T05:48:03;18.47;;;5.47;;
74059;SDS011;62414;53.436;8.828;2023-07-30T05:50:29;21.07;;;5.43;;
74059;SDS011;62414;53.436;8.828;2023-07-30T05:52:54;18.95;;;5.47;;
74059;SDS011;62414;53.436;8.828;2023-07-30T05:55:21;13.97;;;4.83;;
74059;SDS011;62414;53.436;8.828;2023-07-30T05:57:47;20.05;;;4.78;;
74059;SDS011;62414;53.436;8.828;2023-07-30T06:00:12;16.50;;;4.87;;
74059;SDS011;62414;53.436;8.828;2023-07-30T06:02:38;19.48;;;5.10;;
74059;SDS011;62414;53.436;8.828;2023-07-30T06:05:04;15.67;;;4.80;;
74059;SDS011;62414;53.436;8.828;2023-07-30T06:07:29;16.85;;;4.88;;
74059;SDS011;62414;53.436;8.828;2023-07-30T06:09:55;13.03;;;4.30;;
74059;SDS011;62414;53.436;8.828;2023-07-30T06:12:21;17.43;;;4.87;;
74059;SDS011;62414;53.436;8.828;2023-07-30T06:14:47;16.55;;;4.70;;
74059;SDS011;62414;53.436;8.828;2023-07-30T06:17:12;18.63;;;4.83;;
74059;SDS011;62414;53.436;8.828;2023-07-30T06:19:38;17.85;;;4.70;;
74059;SDS011;62414;53.436;8.828;2023-07-30T06:22:03;14.10;;;4.30;;
74059;SDS011;62414;53.436;8.828;2023-07-30T06:24:29;17.93;;;4.40;;
74059;SDS011;62414;53.436;8.828;2023-07-30T06:26:54;16.77;;;4.90;;
74059;SDS011;62414;53.436;8.828;2023-07-30T06:29:21;18.35;;;4.43;;
74059;SDS011;62414;53.436;8.828;2023-07-30T06:31:46;17.85;;;4.30;;
74059;SDS011;62414;53.436;8.828;2023-07-30T06:34:12;15.53;;;4.30;;
74059;SDS011;62414;53.436;8.828;2023-07-30T06:36:37;12.87;;;3.87;;
74059;SDS011;62414;53.436;8.828;2023-07-30T06:39:03;16.92;;;4.45;;
74059;SDS011;62414;53.436;8.828;2023-07-30T06:41:28;19.90;;;4.70;;
74059;SDS011;62414;53.436;8.828;2023-07-30T06:43:54;17.23;;;4.40;;
74059;SDS011;62414;53.436;8.828;2023-07-30T06:46:20;15.90;;;4.53;;
74059;SDS011;62414;53.436;8.828;2023-07-30T06:48:46;15.75;;;4.22;;
74059;SDS011;62414;53.436;8.828;2023-07-30T06:51:11;17.47;;;4.23;;
74059;SDS011;62414;53.436;8.828;2023-07-30T06:53:37;19.00;;;4.50;;
74059;SDS011;62414;53.436;8.828;2023-07-30T06:56:02;18.63;;;4.77;;
74059;SDS011;62414;53.436;8.828;2023-07-30T06:58:28;16.97;;;4.47;;
74059;SDS011;62414;53.436;8.828;2023-07-30T07:00:53;17.42;;;4.50;;
74059;SDS011;62414;53.436;8.828;2023-07-30T07:03:20;16.47;;;4.47;;
74059;SDS011;62414;53.436;8.828;2023-07-30T07:05:51;15.05;;;4.70;;
74059;SDS011;62414;53.436;8.828;2023-07-30T07:08:17;18.30;;;4.13;;
74059;SDS011;62414;53.436;8.828;2023-07-30T07:10:43;16.57;;;4.40;;
74059;SDS011;62414;53.436;8.828;2023-07-30T07:13:09;19.00;;;4.60;;
74059;SDS011;62414;53.436;8.828;2023-07-30T07:15:34;18.60;;;4.63;;
74059;SDS011;62414;53.436;8.828;2023-07-30T07:18:00;21.57;;;4.67;;
74059;SDS011;62414;53.436;8.828;2023-07-30T07:20:26;14.53;;;4.30;;
74059;SDS011;62414;53.436;8.828;2023-07-30T07:22:52;22.45;;;4.70;;
74059;SDS011;62414;53.436;8.828;2023-07-30T07:25:17;15.10;;;4.40;;
74059;SDS011;62414;53.436;8.828;2023-07-30T07:27:43;15.20;;;4.55;;
74059;SDS011;62414;53.436;8.828;2023-07-30T07:30:09;22.43;;;5.33;;
74059;SDS011;62414;53.436;8.828;2023-07-30T07:32:34;18.55;;;5.50;;
74059;SDS011;62414;53.436;8.828;2023-07-30T07:35:00;17.43;;;4.97;;
74059;SDS011;62414;53.436;8.828;2023-07-30T07:37:27;18.23;;;4.70;;
74059;SDS011;62414;53.436;8.828;2023-07-30T07:39:52;15.88;;;4.75;;
74059;SDS011;62414;53.436;8.828;2023-07-30T07:42:18;16.53;;;5.10;;
74059;SDS011;62414;53.436;8.828;2023-07-30T07:44:44;16.73;;;5.20;;
74059;SDS011;62414;53.436;8.828;2023-07-30T07:47:09;14.33;;;4.70;;
74059;SDS011;62414;53.436;8.828;2023-07-30T07:49:35;14.73;;;4.67;;
74059;SDS011;62414;53.436;8.828;2023-07-30T07:52:00;17.40;;;4.73;;
74059;SDS011;62414;53.436;8.828;2023-07-30T07:54:27;12.90;;;4.27;;
74059;SDS011;62414;53.436;8.828;2023-07-30T07:56:52;16.80;;;4.72;;
74059;SDS011;62414;53.436;8.828;2023-07-30T07:59:18;15.50;;;4.50;;
74059;SDS011;62414;53.436;8.828;2023-07-30T08:01:43;11.53;;;4.47;;
74059;SDS011;62414;53.436;8.828;2023-07-30T08:04:08;15.80;;;4.40;;
74059;SDS011;62414;53.436;8.828;2023-07-30T08:06:34;14.87;;;4.47;;
74059;SDS011;62414;53.436;8.828;2023-07-30T08:08:59;14.23;;;4.37;;
74059;SDS011;62414;53.436;8.828;2023-07-30T08:11:26;10.67;;;4.03;;
74059;SDS011;62414;53.436;8.828;2023-07-30T08:13:51;13.18;;;4.20;;
74059;SDS011;62414;53.436;8.828;2023-07-30T08:16:17;12.77;;;3.80;;
74059;SDS011;62414;53.436;8.828;2023-07-30T08:18:42;12.48;;;4.05;;
74059;SDS011;62414;53.436;8.828;2023-07-30T08:21:08;12.83;;;4.20;;
74059;SDS011;62414;53.436;8.828;2023-07-30T08:23:33;15.10;;;3.30;;
74059;SDS011;62414;53.436;8.828;2023-07-30T08:25:59;12.30;;;3.10;;
74059;SDS011;62414;53.436;8.828;2023-07-30T08:28:26;11.83;;;3.40;;
74059;SDS011;62414;53.436;8.828;2023-07-30T08:30:51;11.50;;;3.30;;
74059;SDS011;62414;53.436;8.828;2023-07-30T08:33:17;14.30;;;3.23;;
74059;SDS011;62414;53.436;8.828;2023-07-30T08:35:42;11.98;;;3.22;;
74059;SDS011;62414;53.436;8.828;2023-07-30T08:38:08;11.40;;;2.77;;
74059;SDS011;62414;53.436;8.828;2023-07-30T08:40:33;13.30;;;3.13;;
74059;SDS011;62414;53.436;8.828;2023-07-30T08:42:59;10.85;;;3.10;;
74059;SDS011;62414;53.436;8.828;2023-07-30T08:45:26;11.93;;;2.60;;
74059;SDS011;62414;53.436;8.828;2023-07-30T08:47:51;9.75;;;2.50;;
74059;SDS011;62414;53.436;8.828;2023-07-30T08:50:17;10.23;;;2.50;;
74059;SDS011;62414;53.436;8.828;2023-07-30T08:52:42;11.87;;;2.50;;
74059;SDS011;62414;53.436;8.828;2023-07-30T08:55:08;13.17;;;2.83;;
74059;SDS011;62414;53.436;8.828;2023-07-30T08:57:33;13.75;;;2.40;;
74059;SDS011;62414;53.436;8.828;2023-07-30T09:00:00;13.70;;;2.55;;
74059;SDS011;62414;53.436;8.828;2023-07-30T09:02:33;15.82;;;2.50;;
74059;SDS011;62414;53.436;8.828;2023-07-30T09:05:00;12.10;;;2.30;;
74059;SDS011;62414;53.436;8.828;2023-07-30T09:07:25;10.65;;;2.78;;
74059;SDS011;62414;53.436;8.828;2023-07-30T09:09:51;9.30;;;2.33;;
74059;SDS011;62414;53.436;8.828;2023-07-30T09:12:16;9.80;;;2.50;;
74059;SDS011;62414;53.436;8.828;2023-07-30T09:14:42;10.40;;;2.70;;
74059;SDS011;62414;53.436;8.828;2023-07-30T09:17:07;10.00;;;2.75;;
74059;SDS011;62414;53.436;8.828;2023-07-30T09:19:35;11.57;;;2.63;;
74059;SDS011;62414;53.436;8.828;2023-07-30T09:22:03;14.00;;;2.92;;
74059;SDS011;62414;53.436;8.828;2023-07-30T09:24:29;12.40;;;2.90;;
74059;SDS011;62414;53.436;8.828;2023-07-30T09:26:54;13.10;;;2.77;;
74059;SDS011;62414;53.436;8.828;2023-07-30T09:29:20;11.10;;;2.93;;
74059;SDS011;62414;53.436;8.828;2023-07-30T09:31:46;10.77;;;2.80;;
74059;SDS011;62414;53.436;8.828;2023-07-30T09:34:14;11.50;;;3.00;;
74059;SDS011;62414;53.436;8.828;2023-07-30T09:36:42;10.80;;;3.35;;
74059;SDS011;62414;53.436;8.828;2023-07-30T09:39:13;10.80;;;3.00;;
74059;SDS011;62414;53.436;8.828;2023-07-30T09:41:41;14.10;;;3.15;;
74059;SDS011;62414;53.436;8.828;2023-07-30T09:44:06;13.13;;;3.57;;
74059;SDS011;62414;53.436;8.828;2023-07-30T09:46:32;10.07;;;3.10;;
74059;SDS011;62414;53.436;8.828;2023-07-30T09:48:57;11.70;;;3.13;;
74059;SDS011;62414;53.436;8.828;2023-07-30T09:51:23;11.10;;;2.90;;
74059;SDS011;62414;53.436;8.828;2023-07-30T09:53:50;14.65;;;4.53;;
74059;SDS011;62414;53.436;8.828;2023-07-30T09:56:16;15.02;;;3.20;;
74059;SDS011;62414;53.436;8.828;2023-07-30T09:58:41;13.53;;;3.30;;
74059;SDS011;62414;53.436;8.828;2023-07-30T10:01:06;11.20;;;3.53;;
74059;SDS011;62414;53.436;8.828;2023-07-30T10:03:32;12.33;;;3.57;;
74059;SDS011;62414;53.436;8.828;2023-07-30T10:06:02;13.15;;;3.53;;
74059;SDS011;62414;53.436;8.828;2023-07-30T10:08:28;11.77;;;3.70;;
74059;SDS011;62414;53.436;8.828;2023-07-30T10:10:56;13.75;;;3.72;;
74059;SDS011;62414;53.436;8.828;2023-07-30T10:13:22;11.55;;;4.28;;
74059;SDS011;62414;53.436;8.828;2023-07-30T10:15:48;11.73;;;4.10;;
74059;SDS011;62414;53.436;8.828;2023-07-30T10:18:13;13.13;;;4.50;;
74059;SDS011;62414;53.436;8.828;2023-07-30T10:20:39;13.73;;;4.23;;
74059;SDS011;62414;53.436;8.828;2023-07-30T10:23:05;14.40;;;3.90;;
74059;SDS011;62414;53.436;8.828;2023-07-30T10:25:42;15.10;;;3.70;;
74059;SDS011;62414;53.436;8.828;2023-07-30T10:28:10;10.82;;;3.50;;
74059;SDS011;62414;53.436;8.828;2023-07-30T10:30:54;14.63;;;4.10;;
74059;SDS011;62414;53.436;8.828;2023-07-30T10:33:21;13.13;;;3.80;;
74059;SDS011;62414;53.436;8.828;2023-07-30T10:35:46;13.65;;;4.07;;
74059;SDS011;62414;53.436;8.828;2023-07-30T10:38:16;10.50;;;4.10;;
74059;SDS011;62414;53.436;8.828;2023-07-30T10:40:42;10.48;;;3.63;;
74059;SDS011;62414;53.436;8.828;2023-07-30T10:43:28;13.88;;;3.80;;
74059;SDS011;62414;53.436;8.828;2023-07-30T10:45:54;13.70;;;3.40;;
74059;SDS011;62414;53.436;8.828;2023-07-30T10:48:19;12.10;;;3.50;;
74059;SDS011;62414;53.436;8.828;2023-07-30T10:50:54;10.60;;;3.50;;
74059;SDS011;62414;53.436;8.828;2023-07-30T10:53:20;14.25;;;3.58;;
74059;SDS011;62414;53.436;8.828;2023-07-30T10:55:45;10.10;;;2.97;;
74059;SDS011;62414;53.436;8.828;2023-07-30T10:58:11;11.77;;;3.43;;
74059;SDS011;62414;53.436;8.828;2023-07-30T11:00:38;10.95;;;2.95;;
74059;SDS011;62414;53.436;8.828;2023-07-30T11:03:03;13.27;;;2.90;;
74059;SDS011;62414;53.436;8.828;2023-07-30T11:05:28;8.88;;;2.80;;
74059;SDS011;62414;53.436;8.828;2023-07-30T11:07:54;8.00;;;2.50;;
74059;SDS011;62414;53.436;8.828;2023-07-30T11:10:19;10.47;;;2.73;;
74059;SDS011;62414;53.436;8.828;2023-07-30T11:12:47;9.70;;;2.73;;
74059;SDS011;62414;53.436;8.828;2023-07-30T11:15:13;9.82;;;2.50;;
74059;SDS011;62414;53.436;8.828;2023-07-30T11:17:40;10.77;;;2.50;;
74059;SDS011;62414;53.436;8.828;2023-07-30T11:20:05;10.85;;;2.95;;
74059;SDS011;62414;53.436;8.828;2023-07-30T11:22:32;8.75;;;2.20;;
74059;SDS011;62414;53.436;8.828;2023-07-30T11:24:58;8.45;;;2.40;;
74059;SDS011;62414;53.436;8.828;2023-07-30T11:27:23;8.27;;;2.50;;
74059;SDS011;62414;53.436;8.828;2023-07-30T11:29:53;11.02;;;2.60;;
74059;SDS011;62414;53.436;8.828;2023-07-30T11:32:19;8.50;;;2.30;;
74059;SDS011;62414;53.436;8.828;2023-07-30T11:34:46;9.40;;;2.50;;
74059;SDS011;62414;53.436;8.828;2023-07-30T11:37:11;9.33;;;2.50;;
74059;SDS011;62414;53.436;8.828;2023-07-30T11:39:37;8.40;;;2.70;;
74059;SDS011;62414;53.436;8.828;2023-07-30T11:42:02;9.50;;;2.40;;
74059;SDS011;62414;53.436;8.828;2023-07-30T11:44:31;12.20;;;3.55;;
74059;SDS011;62414;53.436;8.828;2023-07-30T11:46:56;6.87;;;2.30;;
74059;SDS011;62414;53.436;8.828;2023-07-30T11:49:22;8.38;;;2.08;;
74059;SDS011;62414;53.436;8.828;2023-07-30T11:51:49;8.00;;;2.50;;
74059;SDS011;62414;53.436;8.828;2023-07-30T11:54:21;8.55;;;2.25;;
74059;SDS011;62414;53.436;8.828;2023-07-30T11:56:47;8.77;;;2.63;;
74059;SDS011;62414;53.436;8.828;2023-07-30T11:59:12;6.38;;;1.85;;
74059;SDS011;62414;53.436;8.828;2023-07-30T12:01:37;8.90;;;2.30;;
74059;SDS011;62414;53.436;8.828;2023-07-30T12:04:04;8.50;;;2.40;;
74059;SDS011;62414;53.436;8.828;2023-07-30T12:06:39;7.80;;;2.35;;
74059;SDS011;62414;53.436;8.828;2023-07-30T12:09:10;8.88;;;2.50;;
74059;SDS011;62414;53.436;8.828;2023-07-30T12:11:43;6.45;;;2.10;;
74059;SDS011;62414;53.436;8.828;2023-07-30T12:14:09;7.83;;;2.40;;
74059;SDS011;62414;53.436;8.828;2023-07-30T12:16:34;8.15;;;2.20;;
74059;SDS011;62414;53.436;8.828;2023-07-30T12:19:00;7.90;;;2.40;;
74059;SDS011;62414;53.436;8.828;2023-07-30T12:21:25;6.30;;;1.97;;
74059;SDS011;62414;53.436;8.828;2023-07-30T12:23:51;6.97;;;2.50;;
74059;SDS011;62414;53.436;8.828;2023-07-30T12:26:17;7.20;;;1.90;;
74059;SDS011;62414;53.436;8.828;2023-07-30T12:28:43;6.80;;;2.23;;
74059;SDS011;62414;53.436;8.828;2023-07-30T12:31:08;4.43;;;1.65;;
74059;SDS011;62414;53.436;8.828;2023-07-30T12:33:34;6.50;;;1.90;;
74059;SDS011;62414;53.436;8.828;2023-07-30T12:35:59;4.77;;;1.73;;
74059;SDS011;62414;53.436;8.828;2023-07-30T12:38:25;7.65;;;1.70;;
74059;SDS011;62414;53.436;8.828;2023-07-30T12:40:50;6.53;;;2.00;;
74059;SDS011;62414;53.436;8.828;2023-07-30T12:43:17;6.57;;;1.70;;
74059;SDS011;62414;53.436;8.828;2023-07-30T12:45:43;6.78;;;1.80;;
74059;SDS011;62414;53.436;8.828;2023-07-30T12:48:08;4.70;;;1.60;;
74059;SDS011;62414;53.436;8.828;2023-07-30T12:50:34;3.85;;;1.30;;
74059;SDS011;62414;53.436;8.828;2023-07-30T12:52:59;7.50;;;1.87;;
74059;SDS011;62414;53.436;8.828;2023-07-30T12:55:24;5.93;;;1.37;;
74059;SDS011;62414;53.436;8.828;2023-07-30T12:57:50;7.33;;;1.87;;
74059;SDS011;62414;53.436;8.828;2023-07-30T13:00:18;4.55;;;1.52;;
74059;SDS011;62414;53.436;8.828;2023-07-30T13:02:43;5.07;;;1.48;;
74059;SDS011;62414;53.436;8.828;2023-07-30T13:05:08;5.90;;;1.40;;
74059;SDS011;62414;53.436;8.828;2023-07-30T13:07:34;5.60;;;1.25;;
74059;SDS011;62414;53.436;8.828;2023-07-30T13:10:03;5.50;;;1.20;;
74059;SDS011;62414;53.436;8.828;2023-07-30T13:12:30;7.38;;;1.48;;
74059;SDS011;62414;53.436;8.828;2023-07-30T13:14:55;7.47;;;1.20;;
74059;SDS011;62414;53.436;8.828;2023-07-30T13:17:22;6.80;;;1.30;;
74059;SDS011;62414;53.436;8.828;2023-07-30T13:19:47;6.38;;;1.40;;
74059;SDS011;62414;53.436;8.828;2023-07-30T13:22:13;7.17;;;1.10;;
74059;SDS011;62414;53.436;8.828;2023-07-30T13:24:38;6.27;;;1.30;;
74059;SDS011;62414;53.436;8.828;2023-07-30T13:27:04;6.63;;;1.20;;
74059;SDS011;62414;53.436;8.828;2023-07-30T13:29:29;4.67;;;1.40;;
74059;SDS011;62414;53.436;8.828;2023-07-30T13:31:55;5.07;;;1.20;;
74059;SDS011;62414;53.436;8.828;2023-07-30T13:34:21;5.17;;;1.30;;
74059;SDS011;62414;53.436;8.828;2023-07-30T13:36:47;5.50;;;1.20;;
74059;SDS011;62414;53.436;8.828;2023-07-30T13:39:12;5.23;;;1.40;;
74059;SDS011;62414;53.436;8.828;2023-07-30T13:41:38;7.80;;;1.43;;
74059;SDS011;62414;53.436;8.828;2023-07-30T13:44:03;7.15;;;1.40;;
74059;SDS011;62414;53.436;8.828;2023-07-30T13:46:29;5.73;;;1.43;;
74059;SDS011;62414;53.436;8.828;2023-07-30T13:48:54;6.30;;;1.40;;
74059;SDS011;62414;53.436;8.828;2023-07-30T13:51:21;4.80;;;1.20;;
74059;SDS011;62414;53.436;8.828;2023-07-30T13:53:46;5.85;;;1.55;;
74059;SDS011;62414;53.436;8.828;2023-07-30T13:56:12;6.53;;;1.42;;
74059;SDS011;62414;53.436;8.828;2023-07-30T13:58:37;5.37;;;1.43;;
74059;SDS011;62414;53.436;8.828;2023-07-30T14:01:03;5.97;;;1.40;;
74059;SDS011;62414;53.436;8.828;2023-07-30T14:03:28;7.63;;;1.60;;
74059;SDS011;62414;53.436;8.828;2023-07-30T14:05:53;7.25;;;1.55;;
74059;SDS011;62414;53.436;8.828;2023-07-30T14:08:20;8.43;;;1.60;;
74059;SDS011;62414;53.436;8.828;2023-07-30T14:10:46;6.18;;;1.52;;
74059;SDS011;62414;53.436;8.828;2023-07-30T14:13:11;7.20;;;1.60;;
74059;SDS011;62414;53.436;8.828;2023-07-30T14:15:36;6.97;;;1.60;;
74059;SDS011;62414;53.436;8.828;2023-07-30T14:18:02;6.13;;;1.50;;
74059;SDS011;62414;53.436;8.828;2023-07-30T14:20:27;6.70;;;1.40;;
74059;SDS011;62414;53.436;8.828;2023-07-30T14:22:53;6.10;;;1.37;;
74059;SDS011;62414;53.436;8.828;2023-07-30T14:25:20;7.10;;;1.60;;
74059;SDS011;62414;53.436;8.828;2023-07-30T14:27:45;5.20;;;1.38;;